Time;durP1;ratioP1;P1;durP2;ratioP2;P2;SDS_P1;SDS_P2;PMS_P1;PMS_P2;Temp;Humidity;BMP_temperature;BMP_pressure;BME280_temperature;BME280_humidity;BME280_pressure;Samples;Min_cycle;Max_cycle;Signal;HPM_P1;HPM_P2
2022/06/19 00:01:04;;;;;;;7.80;3.90;;;20.40;77.50;;;;;;5142403;28;20039;-75
2022/06/19 00:03:47;;;;;;;5.30;3.35;;;20.40;78.00;;;;;;5142012;28;20527;-76
2022/06/19 00:06:20;;;;;;;7.38;3.55;;;20.30;78.50;;;;;;5141205;28;20061;-76
2022/06/19 00:08:52;;;;;;;6.70;3.23;;;20.20;78.80;;;;;;5144582;28;20053;-76
2022/06/19 00:11:25;;;;;;;13.85;4.32;;;20.00;79.10;;;;;;5143801;28;20053;-76
2022/06/19 00:13:58;;;;;;;11.47;3.67;;;20.00;79.20;;;;;;5144333;28;20340;-76
2022/06/19 00:16:30;;;;;;;10.40;4.13;;;20.00;79.30;;;;;;5144178;28;20050;-76
2022/06/19 00:19:03;;;;;;;10.88;3.70;;;20.00;80.30;;;;;;5145219;28;20057;-76
2022/06/19 00:21:36;;;;;;;12.13;3.72;;;20.00;80.40;;;;;;5144388;28;20728;-75
2022/06/19 00:24:08;;;;;;;10.10;3.65;;;19.90;80.20;;;;;;5151906;28;20061;-77
2022/06/19 00:26:41;;;;;;;13.50;4.18;;;19.90;80.50;;;;;;5142073;28;20077;-76
2022/06/19 00:29:13;;;;;;;16.73;4.47;;;19.90;81.00;;;;;;5144464;28;20164;-76
2022/06/19 00:31:46;;;;;;;17.38;3.80;;;19.80;79.50;;;;;;5158606;28;20290;-76
2022/06/19 00:34:18;;;;;;;13.70;4.80;;;19.90;78.20;;;;;;5140556;28;20054;-75
2022/06/19 00:36:51;;;;;;;16.63;5.00;;;20.00;77.70;;;;;;5138936;28;20047;-76
2022/06/19 00:39:23;;;;;;;9.93;4.43;;;20.10;77.10;;;;;;5138252;28;20039;-77
2022/06/19 00:41:56;;;;;;;13.05;4.38;;;20.20;76.80;;;;;;5140630;28;20521;-76
2022/06/19 00:44:28;;;;;;;15.70;4.65;;;20.20;76.70;;;;;;5137907;28;21087;-76
2022/06/19 00:47:18;;;;;;;16.08;4.63;;;20.30;76.40;;;;;;5147276;28;20058;-76
2022/06/19 00:49:53;;;;;;;11.38;4.05;;;20.30;76.70;;;;;;5133566;28;20046;-76
2022/06/19 00:52:31;;;;;;;10.50;3.90;;;20.30;76.40;;;;;;5150438;28;20050;-75
2022/06/19 00:55:10;;;;;;;8.60;3.95;;;20.30;77.00;;;;;;5149835;28;20467;-76
2022/06/19 00:57:52;;;;;;;12.10;4.32;;;20.30;77.20;;;;;;5135584;28;20652;-76
2022/06/19 01:00:27;;;;;;;11.63;4.43;;;20.20;77.30;;;;;;5135756;28;20050;-77
2022/06/19 01:03:08;;;;;;;11.75;3.90;;;20.20;77.40;;;;;;5135544;28;20046;-76
2022/06/19 01:05:44;;;;;;;11.77;4.07;;;20.20;77.00;;;;;;5134908;28;20062;-76
2022/06/19 01:08:16;;;;;;;15.98;4.50;;;20.20;77.00;;;;;;5134064;28;20047;-76
2022/06/19 01:10:51;;;;;;;14.48;4.57;;;20.20;77.10;;;;;;5148796;28;20047;-76
2022/06/19 01:13:27;;;;;;;17.45;5.35;;;20.30;76.60;;;;;;5149333;28;20400;-74
2022/06/19 01:16:01;;;;;;;19.77;5.38;;;20.30;76.00;;;;;;5137238;28;20501;-75
2022/06/19 01:18:35;;;;;;;13.57;4.28;;;20.30;76.00;;;;;;5135451;28;20058;-76
2022/06/19 01:21:30;;;;;;;12.25;5.38;;;20.30;76.20;;;;;;5135460;28;20039;-76
2022/06/19 01:24:12;;;;;;;11.70;5.13;;;20.10;77.30;;;;;;5136771;28;20070;-76
2022/06/19 01:26:49;;;;;;;21.13;5.45;;;20.10;78.10;;;;;;5134148;28;20049;-76
2022/06/19 01:29:21;;;;;;;21.10;5.35;;;20.00;78.70;;;;;;5153150;28;20066;-75
2022/06/19 01:31:56;;;;;;;12.27;4.93;;;19.90;78.80;;;;;;5137912;28;20056;-75
2022/06/19 01:34:38;;;;;;;19.15;5.85;;;19.90;79.20;;;;;;5139348;28;20542;-74
2022/06/19 01:37:25;;;;;;;14.43;6.05;;;19.80;79.60;;;;;;5139706;28;20054;-74
2022/06/19 01:40:03;;;;;;;11.23;4.88;;;19.70;80.10;;;;;;5137842;28;20534;-76
2022/06/19 01:42:36;;;;;;;13.10;5.28;;;19.60;80.10;;;;;;5153089;28;20051;-76
2022/06/19 01:45:09;;;;;;;17.58;5.85;;;19.70;80.50;;;;;;5136961;28;20070;-76
2022/06/19 01:47:42;;;;;;;13.25;4.90;;;19.70;80.30;;;;;;5136608;28;20055;-75
2022/06/19 01:50:24;;;;;;;16.15;5.80;;;19.70;80.60;;;;;;5140498;28;20068;-74
2022/06/19 01:53:04;;;;;;;18.70;4.90;;;19.60;81.10;;;;;;5153489;28;20070;-74
2022/06/19 01:55:38;;;;;;;16.27;5.35;;;19.60;81.60;;;;;;5142289;28;20058;-74
2022/06/19 01:58:11;;;;;;;20.27;5.68;;;19.60;81.20;;;;;;5152041;28;20065;-75
2022/06/19 02:00:45;;;;;;;;;;;19.60;81.20;;;;;;5148735;28;20074;-74
2022/06/19 02:03:25;;;;;;;18.47;5.40;;;19.60;82.10;;;;;;5136300;28;19922;-76
2022/06/19 02:05:58;;;;;;;14.05;5.43;;;19.50;81.90;;;;;;5135690;28;20341;-75
2022/06/19 02:08:34;;;;;;;20.52;5.78;;;19.60;81.70;;;;;;5138133;28;20050;-74
2022/06/19 02:11:11;;;;;;;20.67;5.38;;;19.60;81.50;;;;;;5136791;28;20050;-75
2022/06/19 02:13:44;;;;;;;13.43;5.00;;;19.60;81.80;;;;;;5137474;28;20054;-75
2022/06/19 02:16:21;;;;;;;20.92;5.03;;;19.60;81.90;;;;;;5140210;28;20050;-74
2022/06/19 02:18:54;;;;;;;16.65;5.45;;;19.60;82.30;;;;;;5137305;28;20055;-75
2022/06/19 02:21:58;;;;;;;18.25;6.30;;;19.60;82.20;;;;;;5138234;28;20051;-76
2022/06/19 02:24:31;;;;;;;13.98;5.72;;;19.50;83.40;;;;;;5089893;28;20065;-75
2022/06/19 02:27:04;;;;;;;19.90;6.03;;;19.50;82.20;;;;;;5138755;28;20486;-75
2022/06/19 02:29:39;;;;;;;12.43;5.60;;;19.60;82.10;;;;;;5152772;28;20054;-74
2022/06/19 02:32:44;;;;;;;11.68;5.50;;;19.50;83.20;;;;;;5137407;28;20050;-74
2022/06/19 02:35:22;;;;;;;19.35;5.90;;;19.40;84.40;;;;;;5139507;28;20069;-75
2022/06/19 02:37:56;;;;;;;12.30;5.40;;;19.20;84.10;;;;;;5137429;28;20066;-75
2022/06/19 02:40:28;;;;;;;13.00;5.53;;;19.20;84.20;;;;;;5139843;28;20487;-75
2022/06/19 02:43:01;;;;;;;16.02;5.93;;;19.10;84.90;;;;;;5137684;28;20513;-75
2022/06/19 02:45:33;;;;;;;17.42;4.82;;;19.10;84.50;;;;;;5138125;28;20053;-75
2022/06/19 02:48:08;;;;;;;21.37;5.53;;;19.00;84.60;;;;;;5131643;28;20050;-75
2022/06/19 02:50:42;;;;;;;21.50;5.50;;;19.00;85.30;;;;;;5137266;28;20050;-76
2022/06/19 02:53:15;;;;;;;15.38;5.80;;;18.90;86.10;;;;;;5154105;28;20391;-76
2022/06/19 02:55:48;;;;;;;19.67;6.60;;;18.90;86.50;;;;;;5137794;28;20054;-75
2022/06/19 02:58:21;;;;;;;12.45;5.82;;;18.90;86.50;;;;;;5147961;28;20065;-75
2022/06/19 03:00:54;;;;;;;12.75;5.90;;;18.90;87.10;;;;;;5141982;28;20058;-75
2022/06/19 03:03:31;;;;;;;14.35;5.65;;;18.80;87.90;;;;;;5138459;28;20058;-74
2022/06/19 03:06:05;;;;;;;13.70;5.93;;;18.70;88.70;;;;;;5139883;28;20474;-75
2022/06/19 03:08:37;;;;;;;;;;;18.60;89.40;;;;;;5130677;28;20062;-75
2022/06/19 03:11:10;;;;;;;14.63;6.20;;;18.60;90.50;;;;;;5140246;28;19925;-75
2022/06/19 03:13:42;;;;;;;16.50;6.28;;;18.50;90.00;;;;;;5139114;28;20042;-75
2022/06/19 03:16:15;;;;;;;21.30;6.28;;;18.50;90.80;;;;;;5143246;28;20570;-75
2022/06/19 03:18:47;;;;;;;22.45;6.22;;;18.50;90.60;;;;;;5138068;28;20403;-76
2022/06/19 03:21:20;;;;;;;12.00;5.35;;;18.40;91.30;;;;;;5151575;28;20125;-74
2022/06/19 03:23:52;;;;;;;11.90;5.82;;;18.40;91.50;;;;;;5134925;28;20038;-75
2022/06/19 03:26:26;;;;;;;18.65;6.25;;;18.30;92.00;;;;;;5138720;28;20502;-74
2022/06/19 03:28:58;;;;;;;13.65;6.00;;;18.30;92.60;;;;;;5145932;28;20050;-75
2022/06/19 03:31:36;;;;;;;14.75;6.57;;;18.20;93.10;;;;;;5113779;28;20050;-75
2022/06/19 03:34:08;;;;;;;14.50;6.05;;;18.30;93.70;;;;;;5134284;28;20051;-74
2022/06/19 03:36:41;;;;;;;14.73;6.28;;;18.40;93.20;;;;;;5135783;28;20306;-75
2022/06/19 03:39:13;;;;;;;14.45;6.20;;;18.40;93.40;;;;;;5135214;28;20054;-76
2022/06/19 03:41:46;;;;;;;18.27;6.63;;;18.40;93.50;;;;;;5135351;28;20471;-76
2022/06/19 03:44:18;;;;;;;17.83;6.03;;;18.40;93.30;;;;;;5134572;28;20493;-77
2022/06/19 03:46:51;;;;;;;14.82;5.95;;;18.40;93.80;;;;;;5139649;28;20054;-76
2022/06/19 03:49:23;;;;;;;14.35;6.18;;;18.50;93.20;;;;;;5133486;28;20051;-76
2022/06/19 03:51:56;;;;;;;20.75;6.00;;;18.50;93.00;;;;;;5138248;28;20502;-76
2022/06/19 03:54:28;;;;;;;16.42;6.32;;;18.60;92.90;;;;;;5152061;28;20042;-75
2022/06/19 03:57:01;;;;;;;17.90;6.55;;;18.50;93.60;;;;;;5134839;28;20091;-77
2022/06/19 03:59:33;;;;;;;15.98;5.68;;;18.40;94.60;;;;;;5134817;28;20069;-77
2022/06/19 04:02:08;;;;;;;14.60;5.70;;;18.40;94.70;;;;;;5133758;28;20698;-76
2022/06/19 04:04:42;;;;;;;16.38;6.72;;;18.40;95.00;;;;;;5132222;28;20046;-76
2022/06/19 04:07:23;;;;;;;16.80;6.70;;;18.40;94.90;;;;;;5137058;28;20050;-76
2022/06/19 04:10:00;;;;;;;12.48;5.72;;;18.40;95.40;;;;;;5129575;28;20061;-76
2022/06/19 04:12:32;;;;;;;15.10;6.53;;;18.40;95.30;;;;;;5118089;28;20062;-76
2022/06/19 04:15:05;;;;;;;15.82;6.20;;;18.40;95.70;;;;;;5128148;28;20600;-75
2022/06/19 04:17:41;;;;;;;15.57;5.47;;;18.30;96.10;;;;;;5148685;28;20054;-76
2022/06/19 04:20:14;;;;;;;22.08;6.45;;;18.40;96.80;;;;;;5134978;28;20097;-76
2022/06/19 04:22:46;;;;;;;16.63;5.88;;;18.50;95.90;;;;;;5132350;28;20047;-76
2022/06/19 04:25:19;;;;;;;17.02;6.47;;;18.60;96.10;;;;;;5134392;28;20045;-76
2022/06/19 04:27:51;;;;;;;12.70;5.78;;;18.60;97.20;;;;;;5132913;28;20049;-75
2022/06/19 04:30:26;;;;;;;13.90;6.00;;;18.60;96.40;;;;;;5143756;28;20142;-75
2022/06/19 04:32:59;;;;;;;17.52;6.00;;;18.70;97.00;;;;;;5130528;28;20050;-76
2022/06/19 04:35:31;;;;;;;20.05;5.85;;;18.80;96.20;;;;;;5132610;28;20574;-75
2022/06/19 04:38:03;;;;;;;15.77;5.68;;;18.90;94.90;;;;;;5136202;28;20047;-75
2022/06/19 04:40:37;;;;;;;17.23;5.65;;;18.90;95.20;;;;;;5131779;28;20058;-75
2022/06/19 04:43:10;;;;;;;11.63;5.75;;;19.00;94.90;;;;;;5137645;28;20521;-75
2022/06/19 04:45:43;;;;;;;17.38;6.00;;;19.10;95.40;;;;;;5134863;28;20035;-75
2022/06/19 04:48:15;;;;;;;14.02;5.38;;;19.30;96.80;;;;;;5141032;28;20046;-75
2022/06/19 04:50:47;;;;;;;16.08;5.60;;;19.40;93.80;;;;;;5134942;28;20054;-76
2022/06/19 04:53:20;;;;;;;19.40;6.15;;;19.50;93.10;;;;;;5134995;28;20046;-76
2022/06/19 04:55:52;;;;;;;21.13;6.05;;;19.70;92.40;;;;;;5132963;28;20525;-75
2022/06/19 04:58:25;;;;;;;20.73;5.95;;;19.80;92.50;;;;;;5134350;28;20050;-74
2022/06/19 05:00:57;;;;;;;19.95;5.97;;;19.80;92.00;;;;;;5132631;28;20516;-75
2022/06/19 05:03:30;;;;;;;15.80;6.18;;;19.90;91.70;;;;;;5146636;28;20058;-75
2022/06/19 05:06:07;;;;;;;22.67;6.25;;;20.00;91.20;;;;;;5136009;28;20057;-75
2022/06/19 05:08:39;;;;;;;17.63;5.97;;;20.10;90.80;;;;;;5153144;28;20045;-75
2022/06/19 05:11:12;;;;;;;23.10;5.75;;;20.30;89.60;;;;;;5141329;28;20053;-75
2022/06/19 05:13:45;;;;;;;19.10;5.67;;;20.40;88.50;;;;;;5139874;28;20051;-75
2022/06/19 05:16:22;;;;;;;19.10;5.75;;;20.50;86.90;;;;;;5117126;28;20069;-75
2022/06/19 05:18:56;;;;;;;17.17;5.53;;;20.60;88.10;;;;;;5127719;28;20047;-75
2022/06/19 05:21:28;;;;;;;16.48;5.57;;;20.70;86.00;;;;;;5145948;28;20505;-74
2022/06/19 05:24:01;;;;;;;19.88;5.43;;;20.80;87.30;;;;;;5131712;28;20039;-75
2022/06/19 05:26:34;;;;;;;14.48;5.45;;;20.90;85.80;;;;;;5124510;28;20049;-75
2022/06/19 05:29:06;;;;;;;;;;;21.00;86.10;;;;;;5129442;28;20047;-76
2022/06/19 05:31:39;;;;;;;23.92;6.60;;;21.10;86.00;;;;;;5140685;28;20396;-76
2022/06/19 05:34:12;;;;;;;17.45;5.90;;;21.20;84.40;;;;;;5117295;28;20059;-76
2022/06/19 05:36:48;;;;;;;25.98;6.50;;;21.30;86.40;;;;;;5118438;28;20046;-77
2022/06/19 05:39:21;;;;;;;23.70;5.78;;;21.50;85.80;;;;;;5122495;28;20051;-76
2022/06/19 05:41:57;;;;;;;15.30;5.80;;;21.60;86.50;;;;;;5117511;28;20050;-74
2022/06/19 05:44:30;;;;;;;14.77;5.20;;;21.70;86.30;;;;;;5114264;28;20414;-77
2022/06/19 05:47:03;;;;;;;14.85;5.60;;;21.90;85.20;;;;;;5138740;28;20057;-76
2022/06/19 05:49:36;;;;;;;14.43;5.10;;;22.00;88.00;;;;;;5118349;28;20039;-75
2022/06/19 05:52:20;;;;;;;17.13;5.27;;;22.10;88.50;;;;;;5118863;28;20047;-76
2022/06/19 05:54:53;;;;;;;16.38;5.28;;;22.30;86.80;;;;;;5122412;28;20855;-77
2022/06/19 05:57:26;;;;;;;17.83;5.07;;;22.40;85.10;;;;;;5125036;28;20950;-77
2022/06/19 05:59:58;;;;;;;24.80;5.93;;;22.60;85.00;;;;;;5125288;28;20047;-78
2022/06/19 06:02:30;;;;;;;23.00;5.40;;;22.80;79.00;;;;;;5123372;28;20047;-75
2022/06/19 06:05:09;;;;;;;23.85;5.32;;;22.90;79.30;;;;;;5116162;28;20054;-76
2022/06/19 06:07:42;;;;;;;22.70;6.43;;;23.10;74.00;;;;;;5123902;28;20053;-75
2022/06/19 06:10:14;;;;;;;21.98;5.28;;;23.30;74.30;;;;;;5129497;28;20054;-77
2022/06/19 06:12:47;;;;;;;27.92;5.45;;;23.40;73.10;;;;;;5134440;28;20374;-76
2022/06/19 06:15:19;;;;;;;18.20;5.55;;;23.60;70.20;;;;;;5137037;28;20711;-75
2022/06/19 06:17:52;;;;;;;29.20;6.63;;;23.80;68.30;;;;;;5137314;28;20050;-76
2022/06/19 06:20:24;;;;;;;19.60;5.20;;;24.00;66.50;;;;;;5126541;28;20050;-76
